Time;durP1;ratioP1;P1;durP2;ratioP2;P2;SDS_P1;SDS_P2;PMS_P1;PMS_P2;Temp;Humidity;BMP_temperature;BMP_pressure;BME280_temperature;BME280_humidity;BME280_pressure;Samples;Min_cycle;Max_cycle;Signal;HPM_P1;HPM_P2
2023/04/18 00:01:45;;;;;;;20.27;11.17;;;9.60;26.30;;;;;;5006335;28;20406;-74
2023/04/18 00:04:12;;;;;;;18.77;12.20;;;9.60;26.20;;;;;;5006989;28;20390;-72
2023/04/18 00:06:37;;;;;;;22.17;11.90;;;9.60;26.60;;;;;;5006145;28;20844;-74
2023/04/18 00:09:03;;;;;;;19.85;11.60;;;9.50;26.50;;;;;;5005102;28;20401;-74
2023/04/18 00:11:29;;;;;;;24.25;11.40;;;9.50;26.90;;;;;;5000391;28;20891;-74
2023/04/18 00:13:56;;;;;;;21.23;11.33;;;9.50;26.40;;;;;;4999868;28;20460;-74
2023/04/18 00:16:22;;;;;;;19.35;11.50;;;9.50;26.00;;;;;;4994945;28;20382;-74
2023/04/18 00:18:48;;;;;;;19.90;11.02;;;9.50;26.80;;;;;;4992687;28;20383;-74
2023/04/18 00:21:15;;;;;;;16.25;10.90;;;9.40;26.30;;;;;;4992079;28;20771;-75
2023/04/18 00:23:42;;;;;;;17.70;10.93;;;9.40;26.60;;;;;;4992320;28;20395;-75
2023/04/18 00:26:07;;;;;;;25.55;12.18;;;9.40;26.80;;;;;;4992481;28;20469;-74
2023/04/18 00:28:33;;;;;;;17.93;11.10;;;9.40;26.90;;;;;;4992880;28;20853;-74
2023/04/18 00:30:59;;;;;;;19.93;11.17;;;9.30;27.20;;;;;;4991794;28;20383;-73
2023/04/18 00:33:24;;;;;;;21.60;11.23;;;9.30;27.30;;;;;;4992557;28;20402;-74
2023/04/18 00:35:50;;;;;;;20.50;11.60;;;9.30;27.90;;;;;;4992967;28;20458;-75
2023/04/18 00:38:15;;;;;;;24.37;11.73;;;9.20;28.70;;;;;;4993411;28;20901;-75
2023/04/18 00:40:44;;;;;;;18.30;11.10;;;9.20;28.70;;;;;;4993091;28;20407;-75
2023/04/18 00:43:12;;;;;;;17.60;11.10;;;9.20;29.40;;;;;;4991509;28;20386;-74
2023/04/18 00:45:38;;;;;;;21.17;11.20;;;9.10;29.90;;;;;;4993142;28;20743;-75
2023/04/18 00:48:04;;;;;;;20.33;11.70;;;9.10;30.70;;;;;;4992593;28;20466;-74
2023/04/18 00:50:30;;;;;;;17.45;11.35;;;9.00;31.30;;;;;;4991183;28;20395;-74
2023/04/18 00:52:56;;;;;;;20.90;12.38;;;9.00;32.20;;;;;;4991537;28;20877;-75
2023/04/18 00:55:23;;;;;;;22.23;12.07;;;8.90;33.30;;;;;;4992421;28;20397;-74
2023/04/18 00:57:49;;;;;;;22.55;12.70;;;8.90;34.30;;;;;;4993275;28;20418;-74
2023/04/18 01:00:15;;;;;;;20.98;12.38;;;8.90;35.80;;;;;;4991757;28;20819;-74
2023/04/18 01:02:41;;;;;;;24.40;12.60;;;8.80;36.30;;;;;;4990855;28;20422;-74
2023/04/18 01:05:07;;;;;;;19.38;12.43;;;8.80;36.50;;;;;;4991770;28;20386;-74
2023/04/18 01:07:36;;;;;;;22.38;13.65;;;8.70;37.80;;;;;;4991582;28;20393;-74
2023/04/18 01:10:03;;;;;;;21.98;13.20;;;8.70;38.10;;;;;;4991587;28;20917;-75
2023/04/18 01:12:29;;;;;;;22.25;13.30;;;8.70;38.00;;;;;;4990913;28;20779;-75
2023/04/18 01:14:54;;;;;;;23.17;13.45;;;8.60;38.60;;;;;;4990403;28;20398;-74
2023/04/18 01:17:21;;;;;;;20.05;13.10;;;8.60;39.40;;;;;;4996099;28;20406;-73
2023/04/18 01:19:46;;;;;;;20.35;13.07;;;8.50;40.10;;;;;;4996801;28;20421;-75
2023/04/18 01:22:13;;;;;;;22.35;13.20;;;8.50;40.90;;;;;;4997290;28;20386;-74
2023/04/18 01:24:39;;;;;;;20.85;13.50;;;8.50;42.10;;;;;;5002662;28;20387;-74
2023/04/18 01:27:05;;;;;;;20.48;14.07;;;8.40;43.20;;;;;;5006682;28;20383;-74
2023/04/18 01:29:31;;;;;;;23.20;14.25;;;8.40;44.30;;;;;;5005489;28;20961;-74
2023/04/18 01:31:56;;;;;;;22.75;13.68;;;8.40;45.70;;;;;;4999193;28;21262;-75
2023/04/18 01:34:22;;;;;;;23.77;13.57;;;8.30;46.60;;;;;;4991189;28;20407;-75
2023/04/18 01:36:47;;;;;;;21.02;13.98;;;8.30;46.70;;;;;;4992050;28;20397;-75
2023/04/18 01:39:14;;;;;;;21.05;13.73;;;8.30;47.30;;;;;;4991606;28;20418;-75
2023/04/18 01:41:41;;;;;;;20.13;14.10;;;8.30;48.10;;;;;;4990656;28;20477;-75
2023/04/18 01:44:06;;;;;;;22.05;14.65;;;8.20;48.30;;;;;;4991492;28;20476;-74
2023/04/18 01:46:32;;;;;;;26.65;14.88;;;8.20;48.60;;;;;;4991549;28;20510;-74
2023/04/18 01:48:58;;;;;;;21.60;13.90;;;8.20;48.90;;;;;;4991100;28;20390;-74
2023/04/18 01:51:25;;;;;;;22.20;13.70;;;8.20;50.00;;;;;;4990966;28;20413;-75
2023/04/18 01:53:51;;;;;;;21.73;14.45;;;8.10;50.20;;;;;;4992093;28;20390;-74
2023/04/18 01:56:16;;;;;;;20.85;13.85;;;8.10;51.20;;;;;;4993769;28;20961;-73
2023/04/18 01:58:42;;;;;;;20.53;13.20;;;8.10;52.00;;;;;;4995316;28;20386;-75
2023/04/18 02:01:07;;;;;;;24.87;14.90;;;8.10;52.60;;;;;;4994310;28;20847;-75
2023/04/18 02:03:33;;;;;;;19.07;13.17;;;8.00;53.30;;;;;;4993574;28;20481;-75
2023/04/18 02:05:59;;;;;;;24.37;14.87;;;8.00;54.10;;;;;;4994630;28;20382;-75
2023/04/18 02:08:25;;;;;;;21.02;13.68;;;7.90;55.10;;;;;;4994783;28;20421;-74
2023/04/18 02:10:51;;;;;;;22.40;14.23;;;8.00;55.10;;;;;;4993237;28;20410;-76
2023/04/18 02:13:16;;;;;;;19.63;14.10;;;7.90;56.10;;;;;;4994711;28;20437;-75
2023/04/18 02:15:45;;;;;;;20.20;13.82;;;7.90;56.60;;;;;;4994790;28;20390;-74
2023/04/18 02:18:11;;;;;;;20.13;13.10;;;7.90;57.60;;;;;;4994745;28;20469;-74
2023/04/18 02:20:37;;;;;;;20.00;14.32;;;7.90;57.60;;;;;;4994811;28;20934;-75
2023/04/18 02:23:03;;;;;;;23.48;13.82;;;7.80;58.10;;;;;;4994355;28;20489;-74
2023/04/18 02:25:29;;;;;;;21.65;13.70;;;7.80;58.50;;;;;;4995207;28;20473;-75
2023/04/18 02:27:55;;;;;;;24.73;14.75;;;7.80;58.60;;;;;;4995379;28;20387;-75
2023/04/18 02:30:21;;;;;;;21.35;14.13;;;7.80;59.40;;;;;;5003591;28;20372;-75
2023/04/18 02:32:50;;;;;;;20.88;13.65;;;7.70;61.00;;;;;;5013362;28;20401;-74
2023/04/18 02:35:16;;;;;;;31.02;14.85;;;7.80;59.80;;;;;;5014136;28;20390;-74
2023/04/18 02:37:42;;;;;;;20.45;14.10;;;7.70;60.20;;;;;;5014831;28;20445;-74
2023/04/18 02:40:08;;;;;;;23.67;14.27;;;7.80;60.30;;;;;;5009033;28;20804;-74
2023/04/18 02:42:33;;;;;;;23.48;13.88;;;7.60;60.90;;;;;;5014960;28;20418;-75
2023/04/18 02:44:59;;;;;;;22.23;13.80;;;7.60;61.80;;;;;;5016625;28;20395;-74
2023/04/18 02:47:24;;;;;;;19.40;12.90;;;7.70;61.80;;;;;;5016831;28;20384;-72
2023/04/18 02:49:50;;;;;;;22.83;14.00;;;7.70;61.80;;;;;;5015730;28;20393;-74
2023/04/18 02:52:16;;;;;;;19.23;12.60;;;7.60;62.30;;;;;;5011339;28;20398;-74
2023/04/18 02:54:41;;;;;;;21.40;14.17;;;7.60;62.20;;;;;;4993913;28;20399;-73
2023/04/18 02:57:07;;;;;;;21.70;13.90;;;7.60;63.00;;;;;;4976318;28;20406;-74
2023/04/18 02:59:32;;;;;;;22.20;13.47;;;7.50;64.30;;;;;;4993711;28;20449;-74
2023/04/18 03:01:58;;;;;;;19.53;13.57;;;7.50;64.00;;;;;;4993259;28;20737;-74
2023/04/18 03:04:23;;;;;;;20.80;14.27;;;7.50;63.60;;;;;;4993201;28;20382;-74
2023/04/18 03:06:49;;;;;;;23.67;14.40;;;7.50;63.70;;;;;;4992637;28;20390;-74
2023/04/18 03:09:15;;;;;;;20.97;14.67;;;7.40;64.90;;;;;;4993855;28;20392;-74
2023/04/18 03:11:41;;;;;;;23.17;14.48;;;7.40;66.60;;;;;;4993336;28;20387;-75
2023/04/18 03:14:07;;;;;;;20.58;14.10;;;7.50;65.80;;;;;;4993780;28;20379;-74
2023/04/18 03:16:32;;;;;;;19.60;13.10;;;7.50;65.10;;;;;;4993626;28;20387;-75
2023/04/18 03:18:58;;;;;;;20.03;14.10;;;7.50;64.40;;;;;;4993970;28;20413;-75
2023/04/18 03:21:23;;;;;;;21.00;14.53;;;7.40;65.80;;;;;;4993003;28;20390;-73
2023/04/18 03:23:49;;;;;;;20.90;13.57;;;7.40;66.80;;;;;;4993631;28;20623;-75
2023/04/18 03:26:15;;;;;;;22.45;14.25;;;7.40;66.20;;;;;;4993543;28;20752;-74
2023/04/18 03:28:40;;;;;;;19.88;13.77;;;7.40;65.80;;;;;;4993407;28;20422;-75
2023/04/18 03:31:06;;;;;;;21.52;14.20;;;7.30;66.60;;;;;;4992691;28;20453;-75
2023/04/18 03:33:31;;;;;;;23.98;14.27;;;7.30;66.80;;;;;;4993610;28;20846;-74
2023/04/18 03:35:59;;;;;;;19.60;13.98;;;7.30;67.60;;;;;;4992490;28;20994;-75
2023/04/18 03:38:24;;;;;;;25.88;13.80;;;7.30;67.90;;;;;;4994055;28;20457;-74
2023/04/18 03:40:50;;;;;;;21.77;14.82;;;7.30;67.00;;;;;;4994203;28;20557;-75
2023/04/18 03:43:16;;;;;;;21.17;14.32;;;7.30;66.70;;;;;;4994102;28;20391;-74
2023/04/18 03:45:42;;;;;;;23.10;14.32;;;7.30;67.70;;;;;;4993321;28;20469;-74
2023/04/18 03:48:08;;;;;;;19.77;13.90;;;7.30;68.20;;;;;;4992929;28;20767;-74
2023/04/18 03:50:33;;;;;;;21.23;14.33;;;7.20;68.10;;;;;;4992938;28;20713;-74
2023/04/18 03:52:59;;;;;;;21.33;14.37;;;7.30;66.70;;;;;;4992617;28;20398;-75
2023/04/18 03:55:25;;;;;;;21.17;13.40;;;7.20;67.20;;;;;;4992947;28;20740;-75
2023/04/18 03:57:51;;;;;;;22.53;13.70;;;7.20;66.90;;;;;;4992674;28;20555;-73
2023/04/18 04:00:16;;;;;;;20.73;12.63;;;7.30;67.60;;;;;;4992521;28;20410;-74
2023/04/18 04:02:42;;;;;;;19.00;13.50;;;7.30;65.90;;;;;;4991988;28;20387;-75
2023/04/18 04:05:08;;;;;;;24.88;13.32;;;7.20;66.40;;;;;;4992675;28;20421;-74
2023/04/18 04:07:34;;;;;;;18.97;12.60;;;7.20;65.80;;;;;;4992863;28;20387;-74
2023/04/18 04:10:00;;;;;;;18.90;13.55;;;7.20;66.60;;;;;;4992407;28;20389;-74
2023/04/18 04:12:26;;;;;;;19.98;13.45;;;7.20;66.60;;;;;;4992092;28;20391;-74
2023/04/18 04:14:52;;;;;;;19.33;13.07;;;7.10;67.70;;;;;;4992438;28;20391;-74
2023/04/18 04:17:17;;;;;;;18.90;12.63;;;7.10;66.70;;;;;;4992253;28;20394;-74
2023/04/18 04:19:43;;;;;;;20.63;14.50;;;7.20;66.20;;;;;;4992242;28;20492;-74
2023/04/18 04:22:09;;;;;;;18.03;13.40;;;7.10;66.70;;;;;;4991878;28;20437;-73
2023/04/18 04:24:37;;;;;;;20.60;13.40;;;7.10;67.70;;;;;;4992113;28;20393;-73
2023/04/18 04:27:04;;;;;;;21.55;13.20;;;7.10;68.30;;;;;;4991833;28;20732;-74
2023/04/18 04:29:29;;;;;;;20.17;14.25;;;7.10;67.60;;;;;;4993593;28;20445;-74
2023/04/18 04:31:55;;;;;;;18.47;13.50;;;7.10;67.60;;;;;;4991754;28;20907;-74
2023/04/18 04:34:20;;;;;;;18.03;12.93;;;7.10;67.20;;;;;;4992014;28;20439;-75
2023/04/18 04:36:47;;;;;;;21.40;14.03;;;7.20;65.30;;;;;;4991973;28;20421;-75
2023/04/18 04:39:13;;;;;;;19.63;12.63;;;7.10;67.90;;;;;;4991967;28;20382;-75
2023/04/18 04:41:39;;;;;;;20.13;13.90;;;7.20;64.90;;;;;;4991355;28;20858;-75
2023/04/18 04:44:05;;;;;;;18.00;12.13;;;7.30;65.50;;;;;;4991508;28;20462;-75
2023/04/18 04:46:32;;;;;;;17.00;12.80;;;7.30;65.50;;;;;;4991465;28;20394;-75
2023/04/18 04:48:59;;;;;;;17.65;13.18;;;7.50;63.00;;;;;;4991592;28;20441;-75
2023/04/18 04:51:24;;;;;;;16.80;12.67;;;7.60;62.60;;;;;;4992151;28;20477;-74
2023/04/18 04:53:50;;;;;;;16.15;12.80;;;7.60;62.00;;;;;;4992538;28;20418;-76
2023/04/18 04:56:16;;;;;;;18.25;12.93;;;7.60;61.60;;;;;;4992131;28;20398;-74
2023/04/18 04:58:41;;;;;;;16.80;12.63;;;7.70;63.30;;;;;;4990346;28;20520;-74
2023/04/18 05:01:08;;;;;;;18.20;13.47;;;7.70;61.20;;;;;;4991354;28;20414;-74
2023/04/18 05:03:35;;;;;;;21.83;13.87;;;7.90;58.50;;;;;;4991926;28;20465;-74
2023/04/18 05:06:00;;;;;;;20.85;15.40;;;7.80;61.30;;;;;;4992270;28;20476;-74
2023/04/18 05:08:26;;;;;;;19.07;14.30;;;7.80;63.80;;;;;;4995236;28;20427;-75
2023/04/18 05:10:52;;;;;;;23.20;13.73;;;7.90;61.90;;;;;;4993320;28;20405;-75
2023/04/18 05:13:17;;;;;;;20.60;14.47;;;8.10;59.80;;;;;;4993097;28;20393;-74
2023/04/18 05:15:43;;;;;;;22.83;14.93;;;8.10;58.20;;;;;;4995247;28;20474;-73
2023/04/18 05:18:09;;;;;;;19.03;14.70;;;8.00;60.60;;;;;;5000003;28;20421;-74
2023/04/18 05:20:34;;;;;;;24.50;14.93;;;8.10;59.80;;;;;;5001281;28;20434;-74
2023/04/18 05:23:00;;;;;;;23.10;15.00;;;8.40;58.20;;;;;;5001498;28;20417;-74
2023/04/18 05:25:25;;;;;;;21.73;15.07;;;8.50;55.20;;;;;;5000908;28;20756;-73
2023/04/18 05:27:51;;;;;;;19.88;14.57;;;8.60;54.80;;;;;;4995902;28;20448;-74
2023/04/18 05:30:17;;;;;;;23.05;15.38;;;8.50;56.50;;;;;;4997485;28;20464;-74
2023/04/18 05:32:42;;;;;;;22.70;14.90;;;8.50;58.10;;;;;;4996814;28;20725;-74
2023/04/18 05:35:08;;;;;;;20.77;15.40;;;8.60;55.00;;;;;;4996752;28;20828;-74
2023/04/18 05:37:34;;;;;;;24.50;16.70;;;8.60;56.60;;;;;;4996750;28;20405;-74
2023/04/18 05:39:59;;;;;;;21.17;15.80;;;8.70;55.40;;;;;;4998138;28;20414;-74
2023/04/18 05:42:25;;;;;;;24.33;16.60;;;8.70;54.90;;;;;;4997408;28;20397;-74
2023/04/18 05:44:50;;;;;;;21.55;16.05;;;8.80;54.80;;;;;;5000455;28;20466;-75
2023/04/18 05:47:16;;;;;;;24.20;16.60;;;8.90;53.30;;;;;;5001352;28;20509;-75
2023/04/18 05:49:42;;;;;;;24.15;16.83;;;9.10;51.30;;;;;;4999790;28;20413;-74
2023/04/18 05:52:08;;;;;;;24.40;17.92;;;9.10;52.50;;;;;;5002202;28;20394;-74
2023/04/18 05:54:33;;;;;;;25.08;16.40;;;9.20;48.40;;;;;;5001577;28;20409;-74
2023/04/18 05:56:59;;;;;;;23.90;16.17;;;9.30;48.40;;;;;;5001847;28;20452;-73
2023/04/18 05:59:25;;;;;;;23.90;16.40;;;9.30;48.40;;;;;;5000896;28;20416;-73
2023/04/18 06:01:51;;;;;;;23.63;16.15;;;9.60;46.20;;;;;;4996740;28;20383;-74
2023/04/18 06:04:18;;;;;;;24.17;16.70;;;9.60;45.90;;;;;;4997199;28;20389;-74
2023/04/18 06:06:44;;;;;;;25.73;17.25;;;9.50;45.20;;;;;;4996977;28;20378;-74
2023/04/18 06:09:10;;;;;;;28.98;18.00;;;9.50;45.90;;;;;;4997527;28;20396;-73
2023/04/18 06:11:35;;;;;;;28.20;17.73;;;9.50;47.80;;;;;;4998941;28;20414;-74
2023/04/18 06:14:02;;;;;;;26.80;17.42;;;9.60;45.00;;;;;;4996776;28;20887;-75
2023/04/18 06:16:28;;;;;;;24.27;17.02;;;9.90;44.00;;;;;;4995807;28;20755;-73
2023/04/18 06:18:54;;;;;;;28.33;16.77;;;10.10;41.60;;;;;;4997030;28;20740;-74
2023/04/18 06:21:20;;;;;;;23.93;16.37;;;10.10;41.60;;;;;;4996573;28;20417;-73
2023/04/18 06:23:46;;;;;;;23.25;16.05;;;10.30;39.70;;;;;;4996944;28;20848;-74
2023/04/18 06:26:13;;;;;;;24.08;16.10;;;10.20;39.60;;;;;;4997152;28;20521;-74
2023/04/18 06:28:38;;;;;;;26.50;16.52;;;10.20;40.00;;;;;;4997254;28;20398;-74
2023/04/18 06:31:04;;;;;;;24.13;15.90;;;10.30;40.00;;;;;;4997243;28;20413;-75
2023/04/18 06:33:30;;;;;;;24.20;17.07;;;10.40;38.70;;;;;;4997327;28;20502;-73
2023/04/18 06:35:56;;;;;;;22.60;15.70;;;10.50;38.10;;;;;;4997839;28;20390;-74
2023/04/18 06:38:21;;;;;;;20.90;15.68;;;10.50;38.70;;;;;;4997051;28;20386;-74
2023/04/18 06:40:47;;;;;;;22.55;16.27;;;10.50;38.90;;;;;;4994949;28;20417;-74
2023/04/18 06:43:12;;;;;;;23.52;15.48;;;10.60;38.80;;;;;;4992091;28;20474;-74
2023/04/18 06:45:38;;;;;;;23.20;15.63;;;10.50;37.50;;;;;;4993902;28;20445;-73
2023/04/18 06:48:04;;;;;;;22.48;15.32;;;10.40;39.80;;;;;;4993548;28;20823;-74
2023/04/18 06:50:29;;;;;;;21.90;14.90;;;10.40;39.40;;;;;;4993802;28;20398;-74
2023/04/18 06:52:55;;;;;;;25.33;16.20;;;10.40;38.50;;;;;;4993099;28;20422;-74
2023/04/18 06:55:21;;;;;;;23.70;14.52;;;10.30;40.20;;;;;;4994045;28;20461;-74
2023/04/18 06:57:46;;;;;;;23.00;15.35;;;10.30;40.90;;;;;;4993841;28;20766;-74
2023/04/18 07:00:12;;;;;;;20.63;13.75;;;10.30;40.40;;;;;;4993862;28;20411;-75
2023/04/18 07:02:38;;;;;;;21.23;15.00;;;10.20;40.10;;;;;;4993801;28;20814;-75
2023/04/18 07:05:05;;;;;;;20.42;14.65;;;10.20;39.80;;;;;;4994660;28;20382;-74
2023/04/18 07:07:31;;;;;;;24.23;14.90;;;10.20;40.20;;;;;;4992960;28;20554;-74
2023/04/18 07:09:57;;;;;;;17.67;13.43;;;10.20;41.10;;;;;;4993640;28;20433;-74
2023/04/18 07:12:23;;;;;;;18.25;13.68;;;10.10;41.00;;;;;;4992915;28;20418;-75
2023/04/18 07:14:49;;;;;;;19.30;13.13;;;10.10;42.10;;;;;;4993681;28;20397;-75
2023/04/18 07:17:15;;;;;;;19.42;13.95;;;10.20;42.40;;;;;;4993679;28;20394;-75
2023/04/18 07:19:41;;;;;;;19.92;13.77;;;10.20;42.40;;;;;;4994070;28;20398;-73
2023/04/18 07:22:06;;;;;;;20.88;13.60;;;10.10;42.60;;;;;;4993019;28;20401;-73
2023/04/18 07:24:32;;;;;;;20.02;12.95;;;9.90;43.50;;;;;;4993285;28;20387;-73
2023/04/18 07:26:58;;;;;;;17.95;13.52;;;9.90;42.60;;;;;;4993183;28;20418;-74
2023/04/18 07:29:23;;;;;;;16.45;12.93;;;10.10;42.40;;;;;;4993140;28;20929;-74
2023/04/18 07:31:49;;;;;;;16.63;12.93;;;10.30;40.20;;;;;;4992830;28;21015;-74
2023/04/18 07:34:15;;;;;;;20.73;13.95;;;10.50;39.80;;;;;;4993083;28;20403;-74
2023/04/18 07:36:41;;;;;;;17.45;13.38;;;10.60;38.60;;;;;;4993515;28;20398;-74
2023/04/18 07:39:07;;;;;;;18.15;13.43;;;10.90;36.80;;;;;;4993314;28;20391;-74
2023/04/18 07:41:33;;;;;;;16.17;12.90;;;11.20;35.30;;;;;;4992847;28;20401;-73
2023/04/18 07:44:00;;;;;;;18.00;13.27;;;11.40;35.50;;;;;;4993113;28;20882;-75
2023/04/18 07:46:26;;;;;;;19.38;14.18;;;11.40;35.90;;;;;;4992926;28;20390;-74
2023/04/18 07:48:51;;;;;;;19.85;13.20;;;11.60;33.70;;;;;;4992622;28;20768;-74
2023/04/18 07:51:17;;;;;;;16.85;12.38;;;11.90;33.10;;;;;;4992473;28;20819;-74
2023/04/18 07:53:42;;;;;;;18.38;13.95;;;12.00;30.50;;;;;;4993122;28;20382;-73
2023/04/18 07:56:08;;;;;;;18.33;13.17;;;12.00;31.90;;;;;;4993290;28;20474;-75
2023/04/18 07:58:34;;;;;;;16.98;12.70;;;12.00;31.30;;;;;;4992994;28;20387;-75
2023/04/18 08:01:00;;;;;;;16.38;12.73;;;11.90;32.00;;;;;;4992565;28;20403;-75
2023/04/18 08:03:26;;;;;;;17.30;13.50;;;11.90;31.00;;;;;;4992777;28;20383;-74
2023/04/18 08:05:52;;;;;;;18.47;12.80;;;11.70;33.40;;;;;;4992995;28;20387;-74
2023/04/18 08:08:18;;;;;;;16.30;12.82;;;11.80;31.30;;;;;;4993042;28;20413;-75
2023/04/18 08:10:44;;;;;;;15.90;13.07;;;11.80;31.20;;;;;;4992915;28;20410;-74
2023/04/18 08:13:11;;;;;;;17.03;13.27;;;11.90;32.00;;;;;;4992617;28;20390;-74
2023/04/18 08:15:38;;;;;;;15.95;12.98;;;11.90;33.00;;;;;;4991526;28;20526;-74
2023/04/18 08:18:03;;;;;;;18.30;13.70;;;12.10;29.90;;;;;;4992995;28;20409;-74
2023/04/18 08:20:29;;;;;;;18.02;13.75;;;12.10;30.60;;;;;;4992738;28;20406;-74
2023/04/18 08:22:55;;;;;;;15.68;12.38;;;11.90;32.00;;;;;;4993725;28;20469;-75
2023/04/18 08:25:21;;;;;;;16.90;12.90;;;12.10;31.50;;;;;;4992552;28;20749;-74
2023/04/18 08:27:46;;;;;;;17.35;13.50;;;12.20;31.80;;;;;;4991089;28;20397;-73
2023/04/18 08:30:13;;;;;;;17.23;12.77;;;12.40;30.10;;;;;;4992823;28;20482;-75
2023/04/18 08:32:38;;;;;;;16.20;12.23;;;12.60;28.70;;;;;;4992523;28;20387;-74
2023/04/18 08:35:04;;;;;;;17.87;13.20;;;12.60;27.70;;;;;;4993142;28;20452;-73
2023/04/18 08:37:34;;;;;;;17.00;12.93;;;12.30;30.30;;;;;;4992794;28;20386;-74
2023/04/18 08:40:00;;;;;;;18.20;13.45;;;12.30;29.00;;;;;;4992885;28;20442;-75
2023/04/18 08:42:26;;;;;;;18.92;13.55;;;12.20;30.90;;;;;;4994906;28;20382;-72
2023/04/18 08:44:52;;;;;;;18.40;13.25;;;12.30;29.70;;;;;;5000370;28;20390;-73
2023/04/18 08:47:19;;;;;;;18.08;13.35;;;12.40;29.50;;;;;;5002653;28;20386;-74
2023/04/18 08:49:45;;;;;;;18.23;12.85;;;12.40;28.80;;;;;;5002267;28;20469;-73
2023/04/18 08:52:18;;;;;;;18.00;12.85;;;12.50;29.60;;;;;;5000835;28;20386;-73
2023/04/18 08:54:45;;;;;;;19.38;14.02;;;12.40;29.00;;;;;;5000658;28;20402;-73
2023/04/18 08:57:22;;;;;;;18.48;13.10;;;12.30;30.60;;;;;;5000162;28;20422;-72
2023/04/18 08:59:49;;;;;;;16.38;12.70;;;12.30;30.00;;;;;;4999780;28;20426;-73
2023/04/18 09:02:15;;;;;;;17.20;12.15;;;12.40;28.90;;;;;;5000003;28;20398;-74
2023/04/18 09:04:47;;;;;;;17.10;12.70;;;12.30;29.90;;;;;;4999509;28;20390;-73
2023/04/18 09:07:18;;;;;;;17.75;13.10;;;12.20;30.00;;;;;;5000834;28;20387;-74
2023/04/18 09:09:49;;;;;;;19.05;13.60;;;12.10;30.70;;;;;;5001105;28;20729;-73
2023/04/18 09:12:18;;;;;;;17.33;13.20;;;11.90;33.00;;;;;;5000435;28;20429;-73
2023/04/18 09:14:45;;;;;;;20.88;14.82;;;12.00;32.00;;;;;;4999261;28;20457;-74
2023/04/18 09:17:13;;;;;;;19.25;13.52;;;12.10;31.20;;;;;;5001451;28;20518;-74
2023/04/18 09:19:53;;;;;;;16.95;13.65;;;12.10;32.30;;;;;;4999201;28;20429;-73
2023/04/18 09:22:18;;;;;;;21.77;14.18;;;12.20;31.40;;;;;;4998205;28;20405;-74
2023/04/18 09:24:54;;;;;;;22.48;14.20;;;12.40;30.70;;;;;;4996881;28;20822;-75
2023/04/18 09:27:23;;;;;;;19.73;14.00;;;12.30;31.50;;;;;;4994895;28;20470;-75
2023/04/18 09:29:51;;;;;;;25.00;14.95;;;12.20;30.80;;;;;;4992994;28;20481;-73
2023/04/18 09:32:29;;;;;;;24.50;16.00;;;12.10;33.00;;;;;;4992648;28;20474;-74
2023/04/18 09:35:01;;;;;;;21.33;15.15;;;12.20;32.30;;;;;;4993988;28;20429;-75
2023/04/18 09:37:28;;;;;;;22.67;15.60;;;12.40;32.60;;;;;;4993431;28;20394;-75
2023/04/18 09:39:54;;;;;;;22.80;15.65;;;12.50;31.10;;;;;;4992531;28;20457;-75
2023/04/18 09:42:21;;;;;;;30.15;16.27;;;12.70;31.90;;;;;;4991854;28;20482;-75
2023/04/18 09:45:04;;;;;;;23.23;15.60;;;12.80;31.10;;;;;;4990817;28;20399;-75
2023/04/18 09:47:31;;;;;;;23.65;16.02;;;12.80;31.00;;;;;;4992501;28;20401;-73
2023/04/18 09:49:57;;;;;;;25.55;16.35;;;12.90;31.00;;;;;;4992320;28;20894;-75
2023/04/18 09:52:27;;;;;;;21.88;15.55;;;13.00;29.70;;;;;;4993770;28;20425;-75
2023/04/18 09:54:57;;;;;;;21.52;14.80;;;13.00;29.90;;;;;;5004739;28;20394;-75
2023/04/18 09:57:26;;;;;;;24.08;16.30;;;12.90;30.10;;;;;;5005646;28;20413;-76
2023/04/18 10:00:16;;;;;;;22.75;15.15;;;13.10;29.80;;;;;;5002083;28;20449;-75
2023/04/18 10:03:07;;;;;;;21.25;14.63;;;13.50;27.80;;;;;;4995172;28;20383;-74
2023/04/18 10:05:35;;;;;;;24.75;16.00;;;13.80;26.80;;;;;;4995018;28;20438;-75
2023/04/18 10:08:01;;;;;;;23.23;14.37;;;13.80;27.00;;;;;;4999307;28;20945;-74
2023/04/18 10:10:27;;;;;;;27.38;15.63;;;13.90;25.60;;;;;;5007718;28;20390;-74
2023/04/18 10:12:56;;;;;;;22.98;15.40;;;13.80;27.10;;;;;;5011075;28;20424;-74
2023/04/18 10:15:25;;;;;;;28.90;15.25;;;14.00;26.00;;;;;;4993352;28;20397;-74
2023/04/18 10:18:02;;;;;;;24.70;15.95;;;14.20;25.30;;;;;;4995489;28;20728;-74
2023/04/18 10:20:29;;;;;;;20.70;14.20;;;14.10;26.30;;;;;;4994339;28;20672;-77
2023/04/18 10:22:56;;;;;;;26.75;15.48;;;13.40;28.20;;;;;;4995207;28;20409;-74
2023/04/18 10:25:37;;;;;;;22.73;15.07;;;13.00;28.90;;;;;;4995455;28;20856;-75
2023/04/18 10:28:04;;;;;;;24.55;15.45;;;12.70;33.50;;;;;;4994916;28;20452;-74
2023/04/18 10:30:39;;;;;;;24.02;15.60;;;12.90;33.50;;;;;;4995745;28;20401;-74
2023/04/18 10:33:25;;;;;;;21.37;14.90;;;13.10;31.50;;;;;;4994499;28;20488;-74
2023/04/18 10:35:57;;;;;;;22.67;14.40;;;13.50;29.20;;;;;;4994703;28;20483;-74
2023/04/18 10:38:23;;;;;;;26.05;16.48;;;13.60;27.50;;;;;;4994517;28;20419;-73
2023/04/18 10:40:49;;;;;;;21.08;14.48;;;13.40;29.10;;;;;;4993105;28;20483;-74
2023/04/18 10:43:15;;;;;;;24.57;14.90;;;13.60;28.30;;;;;;4993332;28;20470;-74
2023/04/18 10:45:40;;;;;;;19.40;14.57;;;13.70;27.60;;;;;;4995034;28;20410;-74
2023/04/18 10:48:28;;;;;;;22.15;14.82;;;13.80;27.20;;;;;;4994706;28;20397;-74
2023/04/18 10:51:17;;;;;;;22.30;15.02;;;13.90;27.50;;;;;;4994638;28;20763;-74
2023/04/18 10:53:52;;;;;;;24.70;15.93;;;13.60;27.80;;;;;;4994860;28;20410;-74
2023/04/18 10:56:18;;;;;;;23.73;15.63;;;13.50;29.50;;;;;;4995112;28;20764;-73
2023/04/18 10:58:49;;;;;;;26.25;16.60;;;13.80;29.60;;;;;;4994731;28;20387;-74
2023/04/18 11:01:23;;;;;;;21.65;15.15;;;14.00;28.50;;;;;;4994484;28;20473;-74
2023/04/18 11:03:49;;;;;;;23.85;16.58;;;14.00;27.50;;;;;;4994795;28;20383;-74
2023/04/18 11:06:15;;;;;;;23.55;14.93;;;13.80;27.80;;;;;;4994644;28;20471;-75
2023/04/18 11:08:40;;;;;;;23.42;15.85;;;13.70;28.70;;;;;;4994804;28;20477;-75
2023/04/18 11:11:08;;;;;;;23.67;15.50;;;13.60;29.00;;;;;;4997665;28;20489;-75
2023/04/18 11:13:35;;;;;;;22.80;15.10;;;13.60;29.20;;;;;;5013937;28;20408;-74
2023/04/18 11:16:01;;;;;;;26.90;15.93;;;13.80;28.20;;;;;;5013254;28;20386;-75
2023/04/18 11:18:39;;;;;;;25.33;16.00;;;13.90;28.20;;;;;;5008020;28;20441;-75
2023/04/18 11:21:05;;;;;;;21.13;15.30;;;14.10;27.40;;;;;;4997076;28;20414;-74
2023/04/18 11:23:30;;;;;;;25.67;16.07;;;14.20;27.80;;;;;;4994317;28;20413;-74
2023/04/18 11:25:57;;;;;;;24.53;16.33;;;14.20;27.50;;;;;;4993173;28;20445;-74
2023/04/18 11:28:25;;;;;;;26.58;15.60;;;14.10;26.90;;;;;;4993768;28;20473;-74
2023/04/18 11:30:51;;;;;;;24.23;15.73;;;13.90;27.10;;;;;;4994050;28;20389;-75
2023/04/18 11:33:16;;;;;;;25.70;15.00;;;13.80;28.70;;;;;;4978462;28;20399;-74
2023/04/18 11:35:44;;;;;;;23.90;15.93;;;13.60;28.50;;;;;;4994234;28;20437;-74
2023/04/18 11:38:14;;;;;;;29.63;15.90;;;13.60;30.30;;;;;;4993565;28;20418;-74
2023/04/18 11:40:47;;;;;;;26.00;16.00;;;13.60;29.10;;;;;;4993345;28;20413;-74
2023/04/18 11:43:22;;;;;;;26.23;15.85;;;13.80;29.90;;;;;;4993456;28;20394;-74
2023/04/18 11:45:58;;;;;;;22.70;15.82;;;13.80;28.90;;;;;;4993467;28;20386;-74
2023/04/18 11:48:35;;;;;;;24.48;15.60;;;13.80;29.10;;;;;;4992211;28;20394;-73
2023/04/18 11:51:00;;;;;;;25.13;16.45;;;13.80;29.20;;;;;;4992335;28;20877;-74
2023/04/18 11:53:36;;;;;;;23.75;15.80;;;13.80;29.70;;;;;;4993487;28;20392;-74
2023/04/18 11:56:03;;;;;;;24.75;15.93;;;13.60;30.30;;;;;;4993859;28;20433;-73
2023/04/18 11:58:31;;;;;;;27.80;15.77;;;13.40;31.50;;;;;;4993843;28;20465;-74
2023/04/18 12:00:58;;;;;;;24.25;16.20;;;13.20;31.40;;;;;;4992776;28;20410;-74
2023/04/18 12:03:23;;;;;;;26.00;16.17;;;13.20;31.60;;;;;;4992897;28;20391;-73
2023/04/18 12:05:58;;;;;;;23.30;16.00;;;13.30;31.80;;;;;;4993405;28;20864;-74
2023/04/18 12:08:25;;;;;;;25.77;16.38;;;13.40;31.90;;;;;;4993330;28;20382;-73
2023/04/18 12:10:52;;;;;;;21.30;15.00;;;13.50;31.20;;;;;;4992515;28;20442;-75
2023/04/18 12:13:24;;;;;;;24.47;16.67;;;13.60;30.50;;;;;;4993363;28;20394;-74
2023/04/18 12:15:50;;;;;;;24.30;16.13;;;13.70;31.20;;;;;;4992362;28;20402;-74
2023/04/18 12:18:18;;;;;;;26.03;15.77;;;13.90;30.70;;;;;;4992936;28;20875;-74
2023/04/18 12:20:49;;;;;;;24.48;15.30;;;14.10;29.70;;;;;;4992256;28;20430;-74
2023/04/18 12:23:28;;;;;;;25.88;16.15;;;14.40;29.40;;;;;;4992442;28;20462;-73
2023/04/18 12:26:05;;;;;;;24.25;15.35;;;14.90;27.70;;;;;;4992443;28;20908;-74
2023/04/18 12:28:32;;;;;;;24.30;16.05;;;15.30;24.70;;;;;;4993032;28;20499;-75
2023/04/18 12:30:58;;;;;;;25.00;16.50;;;15.30;26.10;;;;;;4992923;28;20430;-75
2023/04/18 12:33:23;;;;;;;25.00;15.73;;;15.30;25.00;;;;;;4993650;28;20496;-73